Time;durP1;ratioP1;P1;durP2;ratioP2;P2;SDS_P1;SDS_P2;PMS_P1;PMS_P2;Temp;Humidity;BMP_temperature;BMP_pressure;BME280_temperature;BME280_humidity;BME280_pressure;Samples;Min_cycle;Max_cycle;Signal;HPM_P1;HPM_P2
2022/07/31 00:01:21;;;;;;;8.77;3.08;;;;;;;;;;10462654;28;20025;-52
2022/07/31 00:06:22;;;;;;;8.20;3.25;;;;;;;;;;10466449;28;20041;-50
2022/07/31 00:11:23;;;;;;;9.80;4.80;;;;;;;;;;10489827;28;20480;-52
2022/07/31 00:16:23;;;;;;;9.05;4.05;;;;;;;;;;10484253;28;20109;-50
2022/07/31 00:21:24;;;;;;;6.55;3.88;;;;;;;;;;10462139;28;20385;-50
2022/07/31 00:26:24;;;;;;;5.97;3.17;;;;;;;;;;10454626;28;20025;-54
2022/07/31 00:31:25;;;;;;;5.30;3.28;;;;;;;;;;10487700;28;20017;-51
2022/07/31 00:36:25;;;;;;;8.15;3.80;;;;;;;;;;10494689;28;20017;-46
2022/07/31 00:41:43;;;;;;;6.10;3.20;;;;;;;;;;10462206;28;20051;-50
2022/07/31 00:46:44;;;;;;;5.40;3.38;;;;;;;;;;10458289;28;20028;-51
2022/07/31 00:51:45;;;;;;;4.63;3.10;;;;;;;;;;10476930;28;20024;-49
2022/07/31 00:56:45;;;;;;;10.75;3.40;;;;;;;;;;10480463;28;20029;-50
2022/07/31 01:01:46;;;;;;;10.45;3.22;;;;;;;;;;10482626;28;20089;-49
2022/07/31 01:06:47;;;;;;;10.60;3.55;;;;;;;;;;10480531;28;20041;-50
2022/07/31 01:12:13;;;;;;;6.78;3.35;;;;;;;;;;10467675;28;20048;-51
2022/07/31 01:17:16;;;;;;;4.45;3.13;;;;;;;;;;10453588;28;20043;-53
2022/07/31 01:22:55;;;;;;;6.13;2.92;;;;;;;;;;10452945;28;20458;-52
2022/07/31 01:28:39;;;;;;;4.57;3.00;;;;;;;;;;10460125;28;20021;-47
2022/07/31 01:33:48;;;;;;;5.78;2.97;;;;;;;;;;10483771;28;20027;-50
2022/07/31 01:38:52;;;;;;;8.52;3.40;;;;;;;;;;10476613;28;20021;-50
2022/07/31 01:43:56;;;;;;;4.95;3.10;;;;;;;;;;10471789;28;20040;-50
2022/07/31 01:48:57;;;;;;;8.32;3.25;;;;;;;;;;10459721;28;20077;-51
2022/07/31 01:54:00;;;;;;;6.05;3.40;;;;;;;;;;10460107;28;20044;-50
2022/07/31 01:59:02;;;;;;;4.85;3.03;;;;;;;;;;10453087;28;20041;-51
2022/07/31 02:04:04;;;;;;;6.80;3.47;;;;;;;;;;10479180;28;20399;-49
2022/07/31 02:09:05;;;;;;;7.43;3.30;;;;;;;;;;10479303;28;20375;-51
2022/07/31 02:14:06;;;;;;;6.88;3.30;;;;;;;;;;10463396;28;20027;-50
2022/07/31 02:19:09;;;;;;;5.05;3.17;;;;;;;;;;10478346;28;20017;-51
2022/07/31 02:24:10;;;;;;;10.25;3.22;;;;;;;;;;10461057;28;20108;-50
2022/07/31 02:29:12;;;;;;;7.45;3.80;;;;;;;;;;10487545;28;20028;-50
2022/07/31 02:34:14;;;;;;;5.45;3.20;;;;;;;;;;10446577;28;20028;-48
2022/07/31 02:39:15;;;;;;;8.90;2.75;;;;;;;;;;10452647;28;20021;-51
2022/07/31 02:44:17;;;;;;;5.05;2.92;;;;;;;;;;10462963;28;20028;-46
2022/07/31 02:49:18;;;;;;;7.68;2.83;;;;;;;;;;10443295;28;20075;-53
2022/07/31 02:54:19;;;;;;;6.30;3.25;;;;;;;;;;10470537;28;20530;-49
2022/07/31 02:59:21;;;;;;;9.00;2.83;;;;;;;;;;10463301;28;20024;-52
2022/07/31 03:04:21;;;;;;;7.93;3.22;;;;;;;;;;10517017;23;20159;-70
2022/07/31 03:09:22;;;;;;;7.07;3.00;;;;;;;;;;10480845;28;20351;-68
2022/07/31 03:14:25;;;;;;;6.40;2.70;;;;;;;;;;10455460;28;20025;-66
2022/07/31 03:19:27;;;;;;;5.60;2.80;;;;;;;;;;10458492;28;20023;-64
2022/07/31 03:24:29;;;;;;;7.65;3.28;;;;;;;;;;10464173;28;20049;-63
2022/07/31 03:29:38;;;;;;;7.45;2.97;;;;;;;;;;10476099;28;20028;-68
2022/07/31 03:34:39;;;;;;;6.97;2.85;;;;;;;;;;10477513;28;20048;-68
2022/07/31 03:39:40;;;;;;;10.52;3.22;;;;;;;;;;10486518;28;20024;-67
2022/07/31 03:44:42;;;;;;;5.90;3.05;;;;;;;;;;10488635;28;20124;-67
2022/07/31 03:49:43;;;;;;;5.57;2.83;;;;;;;;;;10456420;28;20540;-68
2022/07/31 03:54:44;;;;;;;13.90;3.80;;;;;;;;;;10447356;28;20028;-67
2022/07/31 03:59:45;;;;;;;14.75;3.35;;;;;;;;;;10481428;28;20040;-62
2022/07/31 04:04:46;;;;;;;13.18;3.72;;;;;;;;;;10451445;28;20045;-67
2022/07/31 04:09:46;;;;;;;11.98;3.80;;;;;;;;;;10488558;28;20025;-69
2022/07/31 04:14:47;;;;;;;12.00;3.67;;;;;;;;;;10496709;28;20067;-69
2022/07/31 04:19:48;;;;;;;6.60;3.08;;;;;;;;;;10480840;28;20040;-69
2022/07/31 04:24:48;;;;;;;7.70;3.72;;;;;;;;;;10488337;28;20136;-69
2022/07/31 04:29:49;;;;;;;13.07;3.30;;;;;;;;;;10468797;28;20037;-67
2022/07/31 04:34:50;;;;;;;8.13;3.30;;;;;;;;;;10483157;28;20059;-68
2022/07/31 04:39:50;;;;;;;9.30;3.38;;;;;;;;;;10477203;28;20031;-65
2022/07/31 04:44:51;;;;;;;7.70;3.35;;;;;;;;;;10481809;28;20032;-53
2022/07/31 04:49:51;;;;;;;4.53;2.90;;;;;;;;;;10475359;28;20028;-66
2022/07/31 04:54:52;;;;;;;5.13;3.00;;;;;;;;;;10470264;28;20127;-67
2022/07/31 04:59:53;;;;;;;5.03;2.90;;;;;;;;;;10488609;28;20078;-65
2022/07/31 05:04:53;;;;;;;2.67;2.05;;;;;;;;;;10477160;28;20040;-61
2022/07/31 05:09:55;;;;;;;7.65;3.53;;;;;;;;;;10484236;28;20044;-66
2022/07/31 05:14:55;;;;;;;5.45;2.97;;;;;;;;;;10490759;28;20028;-66
2022/07/31 05:19:56;;;;;;;6.45;3.47;;;;;;;;;;10479757;28;20366;-66
2022/07/31 05:24:56;;;;;;;7.60;2.30;;;;;;;;;;10489490;28;20032;-61
2022/07/31 05:29:57;;;;;;;6.25;2.58;;;;;;;;;;10466925;28;20056;-62
2022/07/31 05:34:57;;;;;;;8.95;2.80;;;;;;;;;;10482520;28;20040;-66
2022/07/31 05:39:58;;;;;;;6.63;2.55;;;;;;;;;;10471312;28;20036;-63
2022/07/31 05:44:59;;;;;;;5.22;2.55;;;;;;;;;;10477523;28;20028;-65
2022/07/31 05:49:59;;;;;;;7.60;2.35;;;;;;;;;;10483830;28;20032;-65
2022/07/31 05:55:00;;;;;;;3.65;2.50;;;;;;;;;;10492765;28;20017;-64
2022/07/31 06:00:00;;;;;;;3.70;2.38;;;;;;;;;;10479514;28;20032;-62
2022/07/31 06:05:01;;;;;;;4.63;2.60;;;;;;;;;;10492686;28;20088;-65
2022/07/31 06:10:04;;;;;;;2.63;2.08;;;;;;;;;;10492359;28;20472;-62
2022/07/31 06:15:05;;;;;;;3.92;2.50;;;;;;;;;;10489593;28;20387;-65
2022/07/31 06:20:07;;;;;;;6.60;2.15;;;;;;;;;;10471916;28;20116;-65
2022/07/31 06:25:08;;;;;;;3.40;2.17;;;;;;;;;;10474454;28;20036;-63
2022/07/31 06:30:10;;;;;;;8.25;2.20;;;;;;;;;;10465493;28;20123;-62
2022/07/31 06:35:10;;;;;;;2.80;2.15;;;;;;;;;;10489323;28;20533;-65
2022/07/31 06:40:12;;;;;;;8.43;2.50;;;;;;;;;;10481802;28;20069;-59
2022/07/31 06:45:12;;;;;;;7.45;2.28;;;;;;;;;;10491161;28;20025;-59
2022/07/31 06:50:14;;;;;;;6.97;2.00;;;;;;;;;;10477421;28;20032;-60
2022/07/31 06:55:15;;;;;;;7.20;1.90;;;;;;;;;;10460015;28;20093;-60
2022/07/31 07:00:16;;;;;;;3.83;2.30;;;;;;;;;;10462950;28;20097;-60
2022/07/31 07:05:16;;;;;;;2.78;1.80;;;;;;;;;;10476722;28;20048;-59
2022/07/31 07:10:17;;;;;;;2.78;1.70;;;;;;;;;;10490721;28;20013;-60
2022/07/31 07:15:18;;;;;;;4.20;1.60;;;;;;;;;;10474827;28;20418;-56
2022/07/31 07:20:18;;;;;;;2.03;1.63;;;;;;;;;;10476980;28;20025;-59
2022/07/31 07:25:19;;;;;;;3.45;1.60;;;;;;;;;;10476964;28;20024;-56
2022/07/31 07:30:19;;;;;;;5.88;1.98;;;;;;;;;;10462985;28;20476;-56
2022/07/31 07:35:20;;;;;;;4.78;1.75;;;;;;;;;;10497646;28;20031;-60
2022/07/31 07:40:21;;;;;;;3.95;1.70;;;;;;;;;;10495731;28;20093;-57
2022/07/31 07:45:23;;;;;;;6.22;1.95;;;;;;;;;;10473040;28;20086;-59
2022/07/31 07:50:23;;;;;;;3.08;1.80;;;;;;;;;;10482705;28;20367;-58
2022/07/31 07:55:25;;;;;;;2.67;1.50;;;;;;;;;;10481111;28;20021;-60
2022/07/31 08:00:25;;;;;;;1.75;1.50;;;;;;;;;;10494531;28;20021;-58
2022/07/31 08:05:26;;;;;;;4.88;2.00;;;;;;;;;;10497074;28;20441;-59
2022/07/31 08:10:27;;;;;;;3.85;1.85;;;;;;;;;;10497404;28;20021;-56
2022/07/31 08:15:28;;;;;;;4.93;1.75;;;;;;;;;;10486266;28;20028;-55
2022/07/31 08:20:29;;;;;;;8.50;1.80;;;;;;;;;;10497045;28;20032;-59
2022/07/31 08:25:30;;;;;;;5.65;1.80;;;;;;;;;;10496539;28;20021;-59
2022/07/31 08:30:30;;;;;;;2.85;1.75;;;;;;;;;;10496882;28;20037;-58
2022/07/31 08:35:31;;;;;;;2.92;1.45;;;;;;;;;;10493257;28;20500;-59
2022/07/31 08:40:32;;;;;;;5.90;1.75;;;;;;;;;;10495187;28;20059;-58
2022/07/31 08:45:36;;;;;;;5.10;1.73;;;;;;;;;;10494997;28;20105;-60
2022/07/31 08:50:39;;;;;;;4.32;1.98;;;;;;;;;;10472665;28;20056;-57
2022/07/31 08:55:42;;;;;;;3.75;1.85;;;;;;;;;;10476811;28;20032;-59
2022/07/31 09:00:43;;;;;;;3.53;1.60;;;;;;;;;;10470008;28;20347;-58
2022/07/31 09:05:44;;;;;;;2.42;1.67;;;;;;;;;;10457145;28;20515;-59
2022/07/31 09:10:44;;;;;;;2.60;1.70;;;;;;;;;;10481068;28;20074;-59
2022/07/31 09:15:45;;;;;;;2.88;1.35;;;;;;;;;;10466898;28;20029;-58
2022/07/31 09:21:00;;;;;;;4.60;1.85;;;;;;;;;;10466531;28;20391;-59
2022/07/31 09:26:04;;;;;;;6.68;2.00;;;;;;;;;;10473917;28;20048;-59
2022/07/31 09:31:08;;;;;;;2.45;1.30;;;;;;;;;;10487247;28;20029;-60
2022/07/31 09:36:09;;;;;;;1.70;1.50;;;;;;;;;;10488407;28;20013;-60
2022/07/31 09:41:17;;;;;;;2.95;1.55;;;;;;;;;;10479450;28;20048;-60
2022/07/31 09:46:17;;;;;;;1.67;1.37;;;;;;;;;;10485736;28;20028;-60
2022/07/31 09:51:18;;;;;;;3.15;1.40;;;;;;;;;;10479387;28;20449;-60
2022/07/31 09:56:33;;;;;;;2.25;1.50;;;;;;;;;;10477624;28;20070;-57
2022/07/31 10:01:35;;;;;;;2.38;1.60;;;;;;;;;;10480688;28;20039;-58
2022/07/31 10:06:36;;;;;;;3.85;1.40;;;;;;;;;;10463765;28;20397;-58
2022/07/31 10:11:38;;;;;;;2.28;1.42;;;;;;;;;;10461777;28;20028;-59
2022/07/31 10:16:41;;;;;;;1.98;1.45;;;;;;;;;;10461173;28;20138;-56
2022/07/31 10:21:55;;;;;;;2.08;1.45;;;;;;;;;;10461920;28;20204;-56
2022/07/31 10:26:58;;;;;;;2.10;1.35;;;;;;;;;;10447579;28;20477;-59
2022/07/31 10:31:59;;;;;;;3.50;1.40;;;;;;;;;;10464846;28;20488;-56
2022/07/31 10:37:15;;;;;;;2.72;1.33;;;;;;;;;;10473496;28;20070;-56
2022/07/31 10:42:54;;;;;;;4.05;1.38;;;;;;;;;;10490216;28;20029;-56
2022/07/31 10:47:59;;;;;;;2.78;1.55;;;;;;;;;;10486503;28;20036;-60
2022/07/31 10:53:14;;;;;;;2.33;1.30;;;;;;;;;;10478640;28;20265;-58
2022/07/31 10:58:20;;;;;;;1.40;1.20;;;;;;;;;;10489316;28;20047;-58
2022/07/31 11:03:21;;;;;;;1.98;1.27;;;;;;;;;;10465284;28;20043;-58
2022/07/31 11:08:22;;;;;;;2.08;1.27;;;;;;;;;;10489890;28;20166;-55
2022/07/31 11:13:24;;;;;;;1.95;1.50;;;;;;;;;;10481869;28;20035;-56
2022/07/31 11:18:25;;;;;;;1.50;1.40;;;;;;;;;;10491005;28;20030;-60
2022/07/31 11:23:29;;;;;;;2.67;1.38;;;;;;;;;;10490080;28;20028;-60
2022/07/31 11:28:30;;;;;;;1.55;1.30;;;;;;;;;;10488686;28;20028;-57
2022/07/31 11:33:37;;;;;;;1.67;1.20;;;;;;;;;;10489970;28;20031;-60
2022/07/31 11:38:40;;;;;;;1.60;1.38;;;;;;;;;;10489876;28;20089;-59
2022/07/31 11:43:49;;;;;;;1.67;1.40;;;;;;;;;;10488810;28;20475;-60
2022/07/31 11:48:50;;;;;;;1.45;1.30;;;;;;;;;;10481924;28;20029;-61
2022/07/31 11:53:52;;;;;;;1.40;1.30;;;;;;;;;;10468042;28;20021;-60
2022/07/31 11:58:55;;;;;;;1.42;1.27;;;;;;;;;;10490014;28;20029;-60
2022/07/31 12:03:57;;;;;;;1.88;1.23;;;;;;;;;;10475117;28;20078;-58
2022/07/31 12:08:57;;;;;;;1.75;1.30;;;;;;;;;;10489426;28;20021;-60
2022/07/31 12:13:58;;;;;;;1.73;1.00;;;;;;;;;;10443458;28;20025;-60
2022/07/31 12:18:58;;;;;;;1.55;1.20;;;;;;;;;;10474507;28;20553;-60
2022/07/31 12:24:00;;;;;;;1.20;1.08;;;;;;;;;;10496894;28;20047;-60
2022/07/31 12:29:03;;;;;;;1.25;1.15;;;;;;;;;;10479588;28;20171;-61
2022/07/31 12:34:03;;;;;;;2.63;1.00;;;;;;;;;;10485840;28;20032;-58
2022/07/31 12:39:04;;;;;;;1.58;1.20;;;;;;;;;;10494443;28;20025;-57
2022/07/31 12:44:10;;;;;;;1.60;1.10;;;;;;;;;;10494990;28;20060;-59
2022/07/31 12:49:11;;;;;;;2.17;1.17;;;;;;;;;;10470878;28;20028;-59
2022/07/31 12:54:12;;;;;;;2.75;1.30;;;;;;;;;;10492579;28;20028;-58
2022/07/31 12:59:14;;;;;;;1.83;1.30;;;;;;;;;;10493659;28;20459;-60
2022/07/31 13:04:14;;;;;;;1.10;1.10;;;;;;;;;;10481160;28;20257;-56
2022/07/31 13:09:15;;;;;;;1.00;0.90;;;;;;;;;;10486419;28;20241;-57
2022/07/31 13:14:17;;;;;;;2.20;1.10;;;;;;;;;;10471597;28;20115;-59
2022/07/31 13:19:18;;;;;;;1.83;1.40;;;;;;;;;;10494947;28;20125;-58
2022/07/31 13:24:20;;;;;;;1.27;1.08;;;;;;;;;;10494306;28;20123;-57
2022/07/31 13:29:21;;;;;;;1.30;1.20;;;;;;;;;;10479735;28;20031;-54
2022/07/31 13:34:21;;;;;;;1.90;1.33;;;;;;;;;;10465740;28;20017;-56
2022/07/31 13:39:22;;;;;;;3.90;1.27;;;;;;;;;;10492559;28;20027;-55
2022/07/31 13:44:22;;;;;;;1.17;1.10;;;;;;;;;;10490420;28;20036;-58
2022/07/31 13:49:28;;;;;;;1.83;1.20;;;;;;;;;;10456192;28;20021;-57
2022/07/31 13:54:28;;;;;;;1.27;1.15;;;;;;;;;;10492454;28;20384;-60
2022/07/31 13:59:31;;;;;;;1.40;1.30;;;;;;;;;;10479160;28;20112;-60
2022/07/31 14:04:32;;;;;;;1.50;1.20;;;;;;;;;;10478780;28;20055;-56
2022/07/31 14:09:33;;;;;;;1.90;1.20;;;;;;;;;;10492943;28;20025;-59
2022/07/31 14:14:34;;;;;;;1.65;1.10;;;;;;;;;;10478477;28;20299;-58
2022/07/31 14:19:34;;;;;;;1.17;1.10;;;;;;;;;;10493050;28;20306;-60
2022/07/31 14:24:36;;;;;;;1.15;1.10;;;;;;;;;;10486567;28;20511;-60
2022/07/31 14:29:37;;;;;;;1.20;1.10;;;;;;;;;;10492343;28;20043;-60
2022/07/31 14:34:37;;;;;;;1.27;1.17;;;;;;;;;;10491620;28;20035;-58
2022/07/31 14:39:38;;;;;;;1.00;0.90;;;;;;;;;;10490350;28;20023;-60
2022/07/31 14:44:40;;;;;;;1.20;1.10;;;;;;;;;;10490554;28;20036;-60
2022/07/31 14:49:41;;;;;;;1.13;0.95;;;;;;;;;;10459231;28;20158;-60
2022/07/31 14:54:42;;;;;;;1.10;1.00;;;;;;;;;;10476994;28;20480;-59
2022/07/31 14:59:42;;;;;;;1.73;0.90;;;;;;;;;;10491673;28;20035;-60
2022/07/31 15:04:43;;;;;;;3.22;1.17;;;;;;;;;;10476946;28;20048;-47
2022/07/31 15:09:43;;;;;;;0.98;0.90;;;;;;;;;;10489174;28;20016;-45
2022/07/31 15:14:44;;;;;;;1.55;1.15;;;;;;;;;;10490580;28;20101;-45
2022/07/31 15:19:44;;;;;;;1.73;1.27;;;;;;;;;;10472668;28;20032;-45
2022/07/31 15:24:46;;;;;;;1.30;1.20;;;;;;;;;;10480219;28;20033;-45
2022/07/31 15:29:46;;;;;;;1.20;1.10;;;;;;;;;;10486205;28;20032;-45
2022/07/31 15:34:47;;;;;;;1.02;0.95;;;;;;;;;;10481866;28;20056;-45
2022/07/31 15:39:48;;;;;;;1.27;1.17;;;;;;;;;;10483671;28;20028;-45
2022/07/31 15:44:48;;;;;;;1.20;1.10;;;;;;;;;;10476183;28;20035;-45
2022/07/31 15:49:49;;;;;;;1.67;1.20;;;;;;;;;;10459344;28;20040;-45
2022/07/31 15:54:50;;;;;;;0.80;0.80;;;;;;;;;;10482636;28;20122;-45
2022/07/31 15:59:55;;;;;;;1.55;1.00;;;;;;;;;;10498615;28;20028;-46
2022/07/31 16:04:55;;;;;;;0.93;0.93;;;;;;;;;;10483452;28;20057;-45
2022/07/31 16:09:56;;;;;;;1.13;1.10;;;;;;;;;;10498394;28;20029;-45
2022/07/31 16:14:57;;;;;;;1.20;1.10;;;;;;;;;;10497707;28;20032;-45
2022/07/31 16:19:58;;;;;;;2.38;1.10;;;;;;;;;;10497203;28;20033;-45
2022/07/31 16:24:58;;;;;;;0.80;0.80;;;;;;;;;;10484871;28;20033;-45
2022/07/31 16:29:59;;;;;;;1.15;1.05;;;;;;;;;;10480410;28;20044;-45
2022/07/31 16:35:00;;;;;;;1.52;1.23;;;;;;;;;;10472497;28;20488;-45
2022/07/31 16:40:01;;;;;;;1.17;1.08;;;;;;;;;;10491307;28;20430;-45
2022/07/31 16:45:03;;;;;;;1.15;1.00;;;;;;;;;;10496750;28;20036;-45
2022/07/31 16:50:04;;;;;;;1.25;1.13;;;;;;;;;;10477088;28;20074;-45
2022/07/31 16:55:05;;;;;;;0.98;0.98;;;;;;;;;;10470742;28;20437;-45
2022/07/31 17:00:07;;;;;;;1.20;1.10;;;;;;;;;;10467770;28;20040;-45
2022/07/31 17:05:07;;;;;;;1.20;1.10;;;;;;;;;;10491566;28;20044;-45
2022/07/31 17:10:08;;;;;;;1.10;1.00;;;;;;;;;;10481930;28;20459;-45
2022/07/31 17:15:09;;;;;;;1.02;0.95;;;;;;;;;;10454817;28;20480;-46
2022/07/31 17:20:11;;;;;;;0.95;0.90;;;;;;;;;;10466118;28;20036;-45
2022/07/31 17:25:11;;;;;;;2.45;1.20;;;;;;;;;;10466181;28;20064;-45
2022/07/31 17:30:13;;;;;;;1.17;1.02;;;;;;;;;;10458692;28;20492;-47
2022/07/31 17:35:14;;;;;;;2.13;1.08;;;;;;;;;;10459113;28;20033;-47
2022/07/31 17:40:14;;;;;;;2.30;1.20;;;;;;;;;;10459347;28;20467;-46
2022/07/31 17:45:15;;;;;;;2.45;1.30;;;;;;;;;;10466887;28;20043;-46
2022/07/31 17:50:15;;;;;;;3.35;1.48;;;;;;;;;;10470506;28;20025;-54
2022/07/31 17:55:16;;;;;;;1.10;1.00;;;;;;;;;;10461288;28;20021;-45
2022/07/31 18:00:17;;;;;;;2.05;1.20;;;;;;;;;;10458288;28;20025;-45
2022/07/31 18:05:18;;;;;;;6.10;1.38;;;;;;;;;;10451906;28;20059;-47
2022/07/31 18:10:18;;;;;;;5.03;1.48;;;;;;;;;;10451382;28;20016;-45
2022/07/31 18:15:19;;;;;;;4.85;1.60;;;;;;;;;;10454155;28;20033;-45
2022/07/31 18:20:22;;;;;;;6.28;1.42;;;;;;;;;;10459145;28;20154;-45
2022/07/31 18:25:23;;;;;;;2.47;1.58;;;;;;;;;;10461547;28;20039;-45
2022/07/31 18:30:24;;;;;;;1.70;1.30;;;;;;;;;;10463706;28;20043;-45
2022/07/31 18:35:24;;;;;;;4.15;1.10;;;;;;;;;;10467763;28;20094;-44
2022/07/31 18:40:25;;;;;;;1.98;1.35;;;;;;;;;;10475736;28;20089;-45
2022/07/31 18:45:26;;;;;;;3.10;1.38;;;;;;;;;;10488604;28;20024;-44
2022/07/31 18:50:27;;;;;;;1.23;1.05;;;;;;;;;;10483470;28;20024;-45
2022/07/31 18:55:27;;;;;;;1.63;1.25;;;;;;;;;;10468163;28;20031;-45
2022/07/31 19:00:28;;;;;;;2.83;1.25;;;;;;;;;;10491088;28;20036;-45
2022/07/31 19:05:29;;;;;;;4.32;1.30;;;;;;;;;;10487762;28;20048;-45
2022/07/31 19:10:30;;;;;;;2.85;1.27;;;;;;;;;;10485364;28;20086;-46
2022/07/31 19:15:30;;;;;;;6.40;1.50;;;;;;;;;;10482930;28;20032;-47
2022/07/31 19:20:32;;;;;;;3.13;1.20;;;;;;;;;;10471553;28;20483;-46
2022/07/31 19:25:35;;;;;;;3.17;1.20;;;;;;;;;;10488526;28;20094;-46
2022/07/31 19:30:37;;;;;;;6.38;1.50;;;;;;;;;;10487903;28;20056;-45
2022/07/31 19:35:38;;;;;;;7.93;1.80;;;;;;;;;;10489373;28;20435;-51
2022/07/31 19:40:38;;;;;;;4.10;1.20;;;;;;;;;;10489469;28;20086;-46
2022/07/31 19:45:39;;;;;;;8.50;1.52;;;;;;;;;;10488458;28;20036;-45
2022/07/31 19:50:40;;;;;;;8.57;1.58;;;;;;;;;;10480276;28;20044;-50
2022/07/31 19:55:40;;;;;;;9.60;1.75;;;;;;;;;;10490075;28;20106;-45
2022/07/31 20:00:41;;;;;;;5.97;1.50;;;;;;;;;;10491901;28;20111;-46
2022/07/31 20:05:42;;;;;;;6.68;1.40;;;;;;;;;;10476530;28;20044;-48
2022/07/31 20:10:42;;;;;;;4.28;1.45;;;;;;;;;;10485635;28;20068;-47
2022/07/31 20:15:44;;;;;;;1.83;1.10;;;;;;;;;;10470589;28;20033;-48
2022/07/31 20:20:45;;;;;;;2.70;1.52;;;;;;;;;;10475979;28;20029;-46
2022/07/31 20:25:45;;;;;;;3.08;1.52;;;;;;;;;;10491210;28;20388;-46
2022/07/31 20:30:46;;;;;;;3.75;1.60;;;;;;;;;;10486796;28;20024;-47
2022/07/31 20:35:47;;;;;;;6.82;1.50;;;;;;;;;;10484375;28;20032;-46
2022/07/31 20:40:50;;;;;;;7.60;1.63;;;;;;;;;;10475957;28;20032;-48
2022/07/31 20:45:52;;;;;;;5.35;1.70;;;;;;;;;;10501276;28;20031;-50
2022/07/31 20:50:53;;;;;;;6.63;1.70;;;;;;;;;;10465857;28;20037;-47
2022/07/31 20:55:54;;;;;;;7.13;1.85;;;;;;;;;;10466951;28;20029;-46
2022/07/31 21:00:55;;;;;;;3.58;1.77;;;;;;;;;;10458256;28;20024;-48
2022/07/31 21:05:55;;;;;;;3.25;1.90;;;;;;;;;;10485043;28;20041;-51
2022/07/31 21:10:56;;;;;;;5.82;2.05;;;;;;;;;;10493307;28;20028;-48
2022/07/31 21:15:57;;;;;;;5.20;1.80;;;;;;;;;;10477666;28;20036;-46
2022/07/31 21:20:57;;;;;;;2.22;1.58;;;;;;;;;;10494803;28;20465;-47
2022/07/31 21:25:58;;;;;;;2.63;1.80;;;;;;;;;;10481629;28;20028;-46
2022/07/31 21:30:59;;;;;;;2.97;1.83;;;;;;;;;;10491439;28;20028;-46
2022/07/31 21:36:00;;;;;;;2.80;1.92;;;;;;;;;;10476614;28;20027;-46
2022/07/31 21:41:01;;;;;;;4.82;1.92;;;;;;;;;;10482118;28;20033;-46
2022/07/31 21:46:03;;;;;;;7.50;2.28;;;;;;;;;;10492232;28;20029;-45
2022/07/31 21:51:04;;;;;;;5.78;2.30;;;;;;;;;;10476154;28;20067;-46
2022/07/31 21:56:09;;;;;;;4.28;2.30;;;;;;;;;;10476441;28;20033;-45
2022/07/31 22:01:10;;;;;;;10.25;2.42;;;;;;;;;;10458441;28;20370;-47
2022/07/31 22:11:30;;;;;;;4.43;2.22;;;;;;;;;;10460957;28;20226;-46
2022/07/31 22:16:30;;;;;;;15.23;2.90;;;;;;;;;;10467729;28;20203;-46
2022/07/31 22:21:32;;;;;;;14.55;3.05;;;;;;;;;;10465692;28;20021;-45
2022/07/31 22:26:33;;;;;;;6.03;2.42;;;;;;;;;;10477153;28;20055;-46
2022/07/31 22:31:34;;;;;;;5.28;2.60;;;;;;;;;;10484433;28;20047;-45
2022/07/31 22:36:34;;;;;;;9.35;2.80;;;;;;;;;;10481038;28;20024;-45
2022/07/31 22:41:35;;;;;;;4.57;2.72;;;;;;;;;;10484052;28;20035;-57
2022/07/31 22:46:36;;;;;;;4.00;2.85;;;;;;;;;;10481191;28;20055;-45
2022/07/31 22:51:36;;;;;;;8.30;3.00;;;;;;;;;;10467134;28;20107;-45
2022/07/31 22:56:37;;;;;;;5.28;3.20;;;;;;;;;;10471783;28;20086;-45
2022/07/31 23:01:37;;;;;;;4.78;3.10;;;;;;;;;;10482687;28;20043;-45
2022/07/31 23:06:38;;;;;;;7.40;3.40;;;;;;;;;;10480942;28;20048;-44
2022/07/31 23:11:39;;;;;;;4.20;3.20;;;;;;;;;;10489760;28;20025;-45
2022/07/31 23:16:39;;;;;;;7.22;2.92;;;;;;;;;;10477301;28;20545;-45
2022/07/31 23:21:40;;;;;;;9.85;3.30;;;;;;;;;;10483004;28;20039;-45
2022/07/31 23:26:41;;;;;;;6.60;3.45;;;;;;;;;;10482508;28;20396;-44
2022/07/31 23:31:41;;;;;;;9.13;2.60;;;;;;;;;;10483921;28;20589;-46
2022/07/31 23:36:43;;;;;;;5.38;3.22;;;;;;;;;;10489924;28;20082;-54
2022/07/31 23:47:03;;;;;;;3.97;2.95;;;;;;;;;;10475265;28;20488;-45
2022/07/31 23:52:04;;;;;;;7.40;3.00;;;;;;;;;;10477589;28;20028;-45
2022/07/31 23:57:04;;;;;;;5.30;3.03;;;;;;;;;;10472849;28;20029;-51
